Time;durP1;ratioP1;P1;durP2;ratioP2;P2;SDS_P1;SDS_P2;PMS_P1;PMS_P2;Temp;Humidity;BMP_temperature;BMP_pressure;BME280_temperature;BME280_humidity;BME280_pressure;Samples;Min_cycle;Max_cycle;Signal;HPM_P1;HPM_P2
2022/10/15 00:00:49;;;;;;;5.40;3.55;;;;;;;8.28;59.64;100580.28;1769845;80;21024;-77
2022/10/15 00:03:15;;;;;;;5.92;3.65;;;;;;;8.27;59.65;100574.65;1776424;80;21088;-78
2022/10/15 00:05:41;;;;;;;4.78;3.42;;;;;;;8.28;59.54;100582.44;1787181;80;21551;-75
2022/10/15 00:08:08;;;;;;;5.65;3.45;;;;;;;8.28;59.55;100577.62;1766939;80;22231;-77
2022/10/15 00:10:35;;;;;;;7.08;3.65;;;;;;;8.29;59.64;100580.64;1758553;81;21072;-76
2022/10/15 00:13:04;;;;;;;6.30;3.52;;;;;;;8.30;59.63;100570.89;1759914;80;21020;-77
2022/10/15 00:15:31;;;;;;;7.45;3.80;;;;;;;8.30;59.68;100574.36;1758752;80;21682;-76
2022/10/15 00:17:57;;;;;;;5.42;3.37;;;;;;;8.30;59.73;100573.04;1764699;80;21142;-77
2022/10/15 00:20:24;;;;;;;4.62;3.10;;;;;;;8.30;59.77;100569.56;1757953;81;20996;-77
2022/10/15 00:22:50;;;;;;;5.78;3.70;;;;;;;8.29;59.73;100570.05;1758423;81;21116;-78
2022/10/15 00:25:17;;;;;;;6.90;3.92;;;;;;;8.29;59.78;100570.05;1758416;80;21016;-77
2022/10/15 00:27:44;;;;;;;6.28;3.30;;;;;;;8.28;59.79;100574.98;1751771;81;21013;-78
2022/10/15 00:30:12;;;;;;;7.33;3.95;;;;;;;8.26;59.89;100567.17;1769279;81;22344;-77
2022/10/15 00:32:40;;;;;;;5.10;3.67;;;;;;;8.25;59.92;100565.51;1771478;80;20974;-76
2022/10/15 00:35:07;;;;;;;7.62;4.25;;;;;;;8.25;59.94;100562.86;1771811;80;21025;-76
2022/10/15 00:37:34;;;;;;;4.90;3.67;;;;;;;8.25;59.91;100566.00;1772601;80;21050;-77
2022/10/15 00:40:00;;;;;;;6.90;3.70;;;;;;;8.26;59.91;100564.52;1789867;80;21025;-77
2022/10/15 00:42:27;;;;;;;5.62;3.47;;;;;;;8.26;59.79;100568.98;1789796;80;21096;-75
2022/10/15 00:44:57;;;;;;;5.22;3.25;;;;;;;8.27;59.99;100564.05;1789507;80;21017;-77
2022/10/15 00:47:30;;;;;;;6.60;3.70;;;;;;;8.25;60.04;100564.19;1780809;80;21087;-78
2022/10/15 00:50:05;;;;;;;7.60;3.75;;;;;;;8.25;60.16;100563.36;1757928;81;21468;-77
2022/10/15 00:53:01;;;;;;;4.97;3.40;;;;;;;8.25;60.21;100565.51;1758213;81;21043;-76
2022/10/15 00:55:34;;;;;;;5.47;3.40;;;;;;;8.22;60.04;100560.96;1758205;81;21140;-75
2022/10/15 00:58:05;;;;;;;6.37;4.30;;;;;;;8.23;60.22;100562.66;1745539;80;21501;-78
2022/10/15 01:00:31;;;;;;;7.78;3.87;;;;;;;8.22;60.21;100558.31;1771398;81;21085;-78
2022/10/15 01:02:59;;;;;;;5.65;3.72;;;;;;;8.21;60.33;100563.27;1789327;80;21028;-78
2022/10/15 01:05:25;;;;;;;4.95;3.47;;;;;;;8.20;60.44;100564.23;1774023;80;21514;-79
2022/10/15 01:07:53;;;;;;;6.33;3.92;;;;;;;8.19;60.60;100558.56;1768256;79;21006;-80
2022/10/15 01:10:20;;;;;;;7.85;3.58;;;;;;;8.19;60.52;100562.53;1758090;81;21090;-76
2022/10/15 01:13:14;;;;;;;5.65;3.90;;;;;;;8.19;60.44;100565.18;1757700;81;21061;-78
2022/10/15 01:15:49;;;;;;;4.42;3.35;;;;;;;8.19;60.40;100563.86;1758184;81;21505;-77
2022/10/15 01:18:21;;;;;;;8.05;3.95;;;;;;;8.18;60.19;100560.88;1768263;80;21430;-78
2022/10/15 01:20:55;;;;;;;5.17;3.02;;;;;;;8.17;60.06;100561.38;1773835;80;21011;-77
2022/10/15 01:24:03;;;;;;;6.22;3.90;;;;;;;8.16;59.86;100561.00;1795562;80;20985;-76
2022/10/15 01:27:25;;;;;;;6.40;3.92;;;;;;;8.15;59.89;100554.52;1798105;80;20969;-77
2022/10/15 01:30:19;;;;;;;7.87;3.50;;;;;;;8.13;60.04;100552.02;1764398;81;21041;-78
2022/10/15 01:32:59;;;;;;;6.87;3.95;;;;;;;8.10;59.87;100552.27;1763752;81;21052;-77
2022/10/15 01:35:49;;;;;;;9.15;4.95;;;;;;;8.08;59.93;100558.19;1753590;80;21094;-77
2022/10/15 01:38:31;;;;;;;6.50;3.92;;;;;;;8.06;60.02;100554.34;1776349;80;21052;-76
2022/10/15 01:41:12;;;;;;;5.17;3.72;;;;;;;8.06;59.77;100560.95;1744536;82;21077;-78
2022/10/15 01:43:49;;;;;;;6.17;3.50;;;;;;;8.05;59.80;100554.00;1763830;81;21032;-76
2022/10/15 01:46:25;;;;;;;6.62;3.62;;;;;;;8.04;59.78;100564.22;1736485;80;21034;-76
2022/10/15 01:49:04;;;;;;;4.90;3.83;;;;;;;8.04;59.63;100562.07;1788994;80;21154;-77
2022/10/15 01:51:32;;;;;;;6.90;3.37;;;;;;;8.03;59.71;100563.86;1749262;80;21010;-77
2022/10/15 01:53:59;;;;;;;5.67;3.20;;;;;;;8.01;59.81;100564.47;1794442;80;21599;-77
2022/10/15 01:56:25;;;;;;;6.97;3.95;;;;;;;8.01;59.90;100568.44;1763800;81;21537;-78
2022/10/15 01:58:53;;;;;;;5.42;4.00;;;;;;;8.01;59.81;100570.26;1779727;80;20993;-77
2022/10/15 02:01:20;;;;;;;8.13;3.75;;;;;;;8.00;59.79;100563.30;1800324;79;21119;-77
2022/10/15 02:03:49;;;;;;;5.50;3.90;;;;;;;8.00;59.83;100571.25;1763736;80;21535;-78
2022/10/15 02:06:27;;;;;;;5.28;3.27;;;;;;;8.00;59.70;100577.86;1761640;80;21019;-78
2022/10/15 02:09:45;;;;;;;5.00;3.47;;;;;;;7.98;59.77;100572.69;1741102;81;21040;-77
2022/10/15 02:12:42;;;;;;;10.55;4.25;;;;;;;7.99;59.63;100579.64;1745109;80;21128;-77
2022/10/15 02:15:42;;;;;;;7.25;3.50;;;;;;;7.96;59.84;100580.38;1765653;81;21224;-77
2022/10/15 02:18:17;;;;;;;8.40;3.67;;;;;;;7.94;59.71;100576.58;1764479;80;21000;-77
2022/10/15 02:21:02;;;;;;;5.55;3.22;;;;;;;7.92;59.71;100580.30;1793893;78;21524;-75
2022/10/15 02:23:50;;;;;;;6.08;3.40;;;;;;;7.87;59.71;100571.44;1771385;81;21030;-77
2022/10/15 02:26:16;;;;;;;4.75;3.58;;;;;;;7.90;59.70;100576.48;1758333;81;21096;-78
2022/10/15 02:28:48;;;;;;;5.67;3.42;;;;;;;7.91;59.55;100578.14;1759191;80;21097;-78
2022/10/15 02:31:14;;;;;;;4.40;3.22;;;;;;;7.93;59.58;100578.84;1758215;81;21012;-75
2022/10/15 02:33:43;;;;;;;5.28;3.50;;;;;;;7.95;59.55;100578.23;1758198;81;21044;-77
2022/10/15 02:36:12;;;;;;;6.05;3.33;;;;;;;7.98;59.50;100591.70;1758549;81;21040;-76
2022/10/15 02:38:40;;;;;;;5.05;3.00;;;;;;;7.99;59.33;100590.23;1781621;80;21031;-75
2022/10/15 02:41:06;;;;;;;4.87;3.37;;;;;;;8.00;59.26;100591.92;1789785;80;21952;-75
2022/10/15 02:43:34;;;;;;;7.62;3.58;;;;;;;8.01;59.14;100584.81;1790068;80;21057;-76
2022/10/15 02:46:01;;;;;;;4.75;3.25;;;;;;;8.02;59.02;100590.47;1718684;80;21085;-76
2022/10/15 02:48:27;;;;;;;6.25;3.30;;;;;;;8.02;59.08;100593.13;1775271;80;20993;-77
2022/10/15 02:50:54;;;;;;;8.18;2.72;;;;;;;8.03;59.19;100587.67;1778537;80;21577;-75
2022/10/15 02:53:20;;;;;;;5.70;2.92;;;;;;;8.06;59.04;100595.85;1778243;80;21085;-77
2022/10/15 02:55:47;;;;;;;6.90;3.15;;;;;;;8.07;59.13;100585.61;1766098;80;21259;-77
2022/10/15 02:58:14;;;;;;;7.95;4.22;;;;;;;8.10;59.19;100588.50;1783324;80;21065;-77
2022/10/15 03:00:42;;;;;;;7.05;4.10;;;;;;;8.13;59.37;100584.24;1774466;80;21137;-78
2022/10/15 03:03:09;;;;;;;5.08;3.75;;;;;;;8.14;59.61;100583.29;1747456;82;21033;-77
2022/10/15 03:05:37;;;;;;;7.42;4.80;;;;;;;8.16;59.87;100586.64;1759126;80;21779;-79
2022/10/15 03:08:04;;;;;;;7.85;4.60;;;;;;;8.18;60.28;100583.38;1780155;80;21024;-76
2022/10/15 03:10:32;;;;;;;6.25;4.20;;;;;;;8.15;60.52;100581.84;1753127;80;21042;-76
2022/10/15 03:13:04;;;;;;;6.45;4.47;;;;;;;8.15;60.68;100584.48;1758256;80;21583;-77
2022/10/15 03:15:32;;;;;;;7.35;4.83;;;;;;;8.16;60.84;100580.02;1758994;80;21130;-76
2022/10/15 03:17:58;;;;;;;8.95;5.30;;;;;;;8.16;61.00;100586.64;1757651;81;21592;-77
2022/10/15 03:20:27;;;;;;;5.92;4.67;;;;;;;8.13;60.99;100578.48;1757906;80;21059;-78
2022/10/15 03:22:54;;;;;;;11.30;5.47;;;;;;;8.13;61.00;100581.14;1747360;82;21089;-78
2022/10/15 03:25:21;;;;;;;7.47;4.67;;;;;;;8.13;61.17;100582.92;1747465;81;21058;-78
2022/10/15 03:27:51;;;;;;;6.28;4.40;;;;;;;8.13;61.02;100581.14;1768886;80;21042;-80
2022/10/15 03:30:20;;;;;;;8.68;4.22;;;;;;;8.12;60.80;100581.27;1772782;78;21255;-79
2022/10/15 03:32:47;;;;;;;5.37;3.80;;;;;;;8.11;60.68;100583.54;1747275;82;21477;-77
2022/10/15 03:35:13;;;;;;;8.50;4.83;;;;;;;8.10;60.64;100585.85;1763256;80;21037;-78
2022/10/15 03:37:40;;;;;;;8.90;4.15;;;;;;;8.10;60.75;100583.20;1795832;79;20999;-76
2022/10/15 03:40:09;;;;;;;7.65;4.37;;;;;;;8.09;60.65;100579.70;1777623;79;21038;-75
2022/10/15 03:42:37;;;;;;;7.05;3.92;;;;;;;8.08;60.73;100581.52;1747694;82;21174;-77
2022/10/15 03:45:06;;;;;;;8.53;4.42;;;;;;;8.08;60.84;100582.84;1758123;81;20994;-78
2022/10/15 03:47:33;;;;;;;5.50;4.22;;;;;;;8.09;60.83;100577.05;1762842;80;21020;-79
2022/10/15 03:50:00;;;;;;;5.37;3.45;;;;;;;8.10;60.77;100584.03;1758534;81;20989;-76
2022/10/15 03:52:27;;;;;;;9.10;4.50;;;;;;;8.08;60.55;100585.97;1758518;81;21020;-77
2022/10/15 03:54:53;;;;;;;4.47;3.70;;;;;;;8.06;60.52;100578.16;1758363;80;21538;-77
2022/10/15 03:57:20;;;;;;;6.95;4.20;;;;;;;8.06;60.43;100581.30;1761381;80;21001;-78
2022/10/15 03:59:49;;;;;;;6.62;3.77;;;;;;;8.06;60.34;100583.45;1759421;81;21001;-75
2022/10/15 04:02:16;;;;;;;5.60;4.03;;;;;;;8.06;60.48;100573.36;1759272;80;21001;-78
2022/10/15 04:04:42;;;;;;;7.37;4.00;;;;;;;8.07;60.61;100581.17;1747864;82;21045;-77
2022/10/15 04:07:11;;;;;;;6.30;4.15;;;;;;;8.08;60.67;100580.19;1759684;79;21675;-78
2022/10/15 04:09:38;;;;;;;5.60;4.03;;;;;;;8.08;60.65;100581.52;1758130;81;21054;-77
2022/10/15 04:12:23;;;;;;;8.40;4.35;;;;;;;8.05;60.67;100581.80;1759008;80;21031;-76
2022/10/15 04:14:50;;;;;;;7.90;4.20;;;;;;;8.02;60.61;100584.69;1757948;81;21043;-79
2022/10/15 04:17:17;;;;;;;9.00;4.87;;;;;;;7.99;60.72;100595.52;1759296;80;21075;-78
2022/10/15 04:19:45;;;;;;;7.28;4.87;;;;;;;7.96;60.72;100590.97;1756731;79;21247;-79
2022/10/15 04:22:13;;;;;;;7.80;4.60;;;;;;;7.93;60.78;100588.11;1743313;82;21081;-77
2022/10/15 04:24:41;;;;;;;8.90;5.40;;;;;;;7.91;60.85;100587.89;1744985;82;20997;-76
2022/10/15 04:27:07;;;;;;;7.97;4.67;;;;;;;7.91;60.79;100586.58;1770106;80;21048;-79
2022/10/15 04:29:34;;;;;;;9.20;4.55;;;;;;;7.88;61.02;100594.30;1749426;80;21595;-77
2022/10/15 04:32:03;;;;;;;9.03;4.97;;;;;;;7.85;60.77;100591.90;1780383;80;21133;-77
2022/10/15 04:34:31;;;;;;;8.08;4.65;;;;;;;7.84;60.75;100589.75;1764271;80;21473;-78
2022/10/15 04:36:57;;;;;;;8.15;5.05;;;;;;;7.82;60.82;100580.23;1770646;80;21012;-77
2022/10/15 04:39:24;;;;;;;8.20;4.80;;;;;;;7.80;60.80;100584.83;1763763;80;21021;-78
2022/10/15 04:41:51;;;;;;;6.92;4.92;;;;;;;7.80;60.78;100585.69;1763662;81;21008;-77
2022/10/15 04:44:19;;;;;;;8.33;4.92;;;;;;;7.82;60.72;100586.85;1762883;81;21110;-79
2022/10/15 04:46:49;;;;;;;9.25;4.50;;;;;;;7.82;60.73;100585.07;1763598;80;21036;-77
2022/10/15 04:49:33;;;;;;;6.53;4.58;;;;;;;7.83;60.68;100589.87;1765357;81;20997;-77
2022/10/15 04:52:01;;;;;;;6.92;5.00;;;;;;;7.84;60.88;100591.06;1765214;81;20992;-79
2022/10/15 04:54:29;;;;;;;7.50;4.78;;;;;;;7.86;61.11;100597.53;1764224;81;21129;-77
2022/10/15 04:56:59;;;;;;;7.70;5.08;;;;;;;7.86;61.12;100589.59;1765933;80;21426;-76
2022/10/15 04:59:27;;;;;;;10.58;4.58;;;;;;;7.86;60.91;100594.42;1787836;80;21067;-78
2022/10/15 05:02:12;;;;;;;6.70;5.50;;;;;;;7.87;60.88;100595.25;1786139;80;21090;-77
2022/10/15 05:04:38;;;;;;;7.10;5.67;;;;;;;7.87;61.08;100586.82;1795454;80;21073;-78
2022/10/15 05:07:05;;;;;;;9.53;6.30;;;;;;;7.90;61.20;100595.00;1790707;80;21087;-77
2022/10/15 05:09:31;;;;;;;9.45;5.85;;;;;;;7.93;61.37;100601.34;1763732;80;21235;-77
2022/10/15 05:11:59;;;;;;;7.70;5.83;;;;;;;7.96;61.28;100598.45;1744363;82;21062;-77
2022/10/15 05:14:27;;;;;;;7.25;5.55;;;;;;;7.97;61.16;100601.43;1744407;82;21032;-77
2022/10/15 05:17:08;;;;;;;10.55;6.08;;;;;;;7.98;60.68;100597.00;1752530;80;21061;-77
2022/10/15 05:19:36;;;;;;;8.18;5.17;;;;;;;8.01;60.60;100600.69;1783190;80;21025;-76
2022/10/15 05:22:02;;;;;;;7.40;4.80;;;;;;;8.04;60.46;100603.09;1724941;81;21225;-77
2022/10/15 05:24:30;;;;;;;8.10;5.97;;;;;;;8.08;60.57;100610.63;1752841;81;21555;-78
2022/10/15 05:26:58;;;;;;;8.55;5.22;;;;;;;8.13;60.85;100610.25;1761358;79;21025;-77
2022/10/15 05:29:27;;;;;;;8.10;4.97;;;;;;;8.14;60.67;100605.30;1803720;79;21049;-77
2022/10/15 05:31:53;;;;;;;12.47;4.65;;;;;;;8.16;60.46;100615.27;1783754;80;21026;-77
2022/10/15 05:34:23;;;;;;;9.88;5.95;;;;;;;8.17;60.40;100610.34;1782975;80;21537;-79
2022/10/15 05:36:51;;;;;;;7.12;4.85;;;;;;;8.18;60.33;100612.49;1780009;80;21021;-78
2022/10/15 05:39:20;;;;;;;8.78;5.40;;;;;;;8.18;60.10;100609.35;1760296;80;21553;-77
2022/10/15 05:41:48;;;;;;;9.08;5.00;;;;;;;8.20;59.99;100618.00;1758916;79;21053;-77
2022/10/15 05:44:14;;;;;;;8.45;5.67;;;;;;;8.24;59.81;100617.25;1819587;79;20995;-78
2022/10/15 05:46:41;;;;;;;8.40;6.03;;;;;;;8.28;59.88;100615.52;1779403;79;21038;-77
2022/10/15 05:49:09;;;;;;;9.73;5.87;;;;;;;8.33;60.01;100615.64;1771919;80;21076;-77
2022/10/15 05:51:37;;;;;;;14.53;6.40;;;;;;;8.35;60.00;100611.88;1767829;79;21045;-77
2022/10/15 05:54:06;;;;;;;7.42;5.20;;;;;;;8.37;59.82;100617.05;1783602;79;21747;-78
2022/10/15 05:56:35;;;;;;;8.50;5.95;;;;;;;8.37;59.79;100619.20;1770972;80;21336;-75
2022/10/15 05:59:02;;;;;;;9.95;5.80;;;;;;;8.38;59.90;100622.22;1784127;80;21103;-79
2022/10/15 06:01:31;;;;;;;11.93;6.78;;;;;;;8.40;60.03;100620.27;1752693;81;21013;-76
2022/10/15 06:03:57;;;;;;;11.83;6.42;;;;;;;8.46;59.92;100621.59;1761115;81;21071;-76
2022/10/15 06:06:25;;;;;;;10.00;6.95;;;;;;;8.51;59.79;100624.66;1748380;80;21017;-76
2022/10/15 06:08:53;;;;;;;8.85;5.45;;;;;;;8.60;59.66;100623.03;1791623;80;20992;-75
2022/10/15 06:11:21;;;;;;;7.67;5.12;;;;;;;8.68;59.18;100625.84;1759686;80;21529;-75
2022/10/15 06:13:48;;;;;;;10.28;5.75;;;;;;;8.76;58.84;100627.33;1760928;81;21064;-76
2022/10/15 06:16:16;;;;;;;9.65;5.97;;;;;;;8.85;58.63;100624.37;1761198;81;21016;-76
2022/10/15 06:18:42;;;;;;;10.53;5.70;;;;;;;8.96;58.38;100626.05;1783418;80;21447;-75
2022/10/15 06:21:09;;;;;;;10.00;5.55;;;;;;;9.07;58.31;100626.44;1792341;80;21067;-76
2022/10/15 06:23:37;;;;;;;9.85;5.42;;;;;;;9.16;57.89;100630.42;1761688;80;21236;-75
2022/10/15 06:26:07;;;;;;;6.67;5.10;;;;;;;9.23;57.62;100634.22;1769930;80;21067;-75
2022/10/15 06:28:34;;;;;;;7.85;5.10;;;;;;;9.29;57.18;100637.27;1760605;80;21052;-72
2022/10/15 06:31:01;;;;;;;6.97;4.30;;;;;;;9.33;57.14;100632.03;1758635;80;21035;-75
2022/10/15 06:33:31;;;;;;;7.70;4.37;;;;;;;9.40;56.88;100630.02;1759736;80;21084;-75
2022/10/15 06:36:06;;;;;;;9.33;4.83;;;;;;;9.45;56.42;100634.43;1759303;81;21136;-75
2022/10/15 06:38:33;;;;;;;9.38;4.75;;;;;;;9.51;56.32;100637.02;1758449;80;21049;-76
2022/10/15 06:41:07;;;;;;;6.83;4.55;;;;;;;9.58;55.79;100634.63;1758466;81;21064;-75
2022/10/15 06:43:34;;;;;;;9.78;4.67;;;;;;;9.61;56.23;100643.65;1758181;81;21052;-75
2022/10/15 06:46:01;;;;;;;9.03;4.95;;;;;;;9.67;55.92;100646.23;1747411;82;21041;-76
2022/10/15 06:48:27;;;;;;;9.40;5.28;;;;;;;9.73;56.38;100644.34;1782354;79;21126;-75
2022/10/15 06:50:58;;;;;;;8.28;4.50;;;;;;;9.79;56.25;100643.77;1758208;81;21517;-75
2022/10/15 06:53:25;;;;;;;8.68;4.62;;;;;;;9.85;55.86;100648.55;1741526;82;21554;-74
2022/10/15 06:55:51;;;;;;;6.53;4.45;;;;;;;9.91;55.76;100648.44;1758132;81;21494;-75
2022/10/15 06:58:17;;;;;;;11.90;4.67;;;;;;;9.99;55.53;100650.74;1727254;79;21094;-75
2022/10/15 07:00:44;;;;;;;9.48;4.33;;;;;;;10.07;55.68;100647.88;1731511;80;21102;-75
2022/10/15 07:03:10;;;;;;;7.60;4.15;;;;;;;10.15;55.16;100652.80;1742090;82;21576;-73
2022/10/15 07:05:37;;;;;;;7.72;3.42;;;;;;;10.25;54.67;100650.13;1758173;81;21063;-75
2022/10/15 07:08:04;;;;;;;8.58;4.33;;;;;;;10.33;54.37;100650.27;1758914;80;21052;-75
2022/10/15 07:10:32;;;;;;;8.35;4.12;;;;;;;10.41;54.23;100650.41;1741585;82;21022;-74
2022/10/15 07:12:59;;;;;;;9.80;3.87;;;;;;;10.48;54.00;100651.98;1758028;81;21105;-76
2022/10/15 07:15:27;;;;;;;8.98;3.72;;;;;;;10.55;53.85;100650.92;1758125;81;21040;-75
2022/10/15 07:17:56;;;;;;;6.05;4.40;;;;;;;10.62;53.68;100646.67;1755625;78;21100;-76
2022/10/15 07:20:24;;;;;;;5.72;3.83;;;;;;;10.69;53.22;100657.07;1779085;80;21014;-75
2022/10/15 07:22:57;;;;;;;7.67;3.92;;;;;;;10.77;53.26;100659.83;1780518;78;20991;-75
2022/10/15 07:25:26;;;;;;;6.85;3.05;;;;;;;10.85;52.58;100654.27;1796713;80;21198;-73
2022/10/15 07:27:54;;;;;;;6.15;3.60;;;;;;;10.91;52.54;100665.64;1780456;80;21105;-75
2022/10/15 07:30:21;;;;;;;5.92;3.37;;;;;;;10.98;52.25;100666.23;1785984;80;21005;-74
2022/10/15 07:32:51;;;;;;;7.55;3.37;;;;;;;11.04;52.32;100666.14;1795876;80;21009;-74
2022/10/15 07:35:18;;;;;;;6.78;3.12;;;;;;;11.12;52.14;100660.91;1775774;80;21042;-75
2022/10/15 07:37:46;;;;;;;10.80;3.33;;;;;;;11.24;51.74;100671.34;1793171;78;21199;-75
2022/10/15 07:40:12;;;;;;;5.58;2.67;;;;;;;11.34;51.17;100673.47;1791456;80;21119;-75
2022/10/15 07:42:40;;;;;;;3.75;2.72;;;;;;;11.42;50.66;100678.86;1759479;81;21027;-75
2022/10/15 07:45:08;;;;;;;6.00;2.52;;;;;;;11.47;50.29;100663.27;1758524;81;21053;-75
2022/10/15 07:47:36;;;;;;;6.30;2.52;;;;;;;11.52;50.18;100664.98;1803104;78;21540;-76
2022/10/15 07:50:02;;;;;;;5.08;2.65;;;;;;;11.60;50.29;100674.37;1806920;79;21147;-76
2022/10/15 07:52:30;;;;;;;5.85;2.60;;;;;;;11.71;49.44;100677.81;1763248;80;21044;-76
2022/10/15 07:54:57;;;;;;;4.30;2.45;;;;;;;11.80;49.60;100664.42;1763710;78;21481;-75
2022/10/15 07:57:24;;;;;;;8.00;2.20;;;;;;;11.94;49.62;100661.73;1765602;80;20989;-75
2022/10/15 07:59:50;;;;;;;3.70;2.45;;;;;;;12.09;49.00;100667.81;1763907;81;21060;-77
2022/10/15 08:02:17;;;;;;;5.78;2.33;;;;;;;12.24;48.76;100674.75;1763904;81;21149;-75
2022/10/15 08:04:45;;;;;;;4.10;2.55;;;;;;;12.36;47.88;100664.16;1763642;81;21025;-75
2022/10/15 08:07:11;;;;;;;5.08;2.17;;;;;;;12.45;47.60;100677.05;1771238;80;21079;-76
2022/10/15 08:09:39;;;;;;;4.22;2.25;;;;;;;12.51;47.65;100673.25;1795255;80;21020;-76
2022/10/15 08:12:07;;;;;;;5.05;2.17;;;;;;;12.57;47.61;100674.45;1775221;80;21101;-75
2022/10/15 08:14:34;;;;;;;4.03;2.27;;;;;;;12.67;47.38;100667.67;1796712;80;21081;-73
2022/10/15 08:17:03;;;;;;;7.08;2.52;;;;;;;12.77;46.94;100681.23;1787995;78;21037;-76
2022/10/15 08:19:29;;;;;;;3.90;2.40;;;;;;;12.83;46.67;100657.09;1769148;80;21024;-75
2022/10/15 08:21:56;;;;;;;5.55;2.42;;;;;;;12.90;46.76;100666.61;1776751;80;21495;-75
2022/10/15 08:24:24;;;;;;;5.17;2.83;;;;;;;12.96;46.69;100663.29;1741251;81;21002;-76
2022/10/15 08:26:51;;;;;;;4.60;2.50;;;;;;;13.09;46.83;100665.01;1757247;81;21481;-76
2022/10/15 08:29:17;;;;;;;4.00;2.75;;;;;;;13.23;46.22;100664.05;1766254;79;20991;-76
2022/10/15 08:31:44;;;;;;;5.17;2.52;;;;;;;13.30;46.36;100671.78;1786224;80;20977;-76
2022/10/15 08:34:10;;;;;;;4.37;2.47;;;;;;;13.38;45.88;100654.44;1757931;81;21035;-76
2022/10/15 08:36:37;;;;;;;5.00;2.75;;;;;;;13.52;46.07;100664.48;1761000;80;21111;-76
2022/10/15 08:39:06;;;;;;;5.05;2.70;;;;;;;13.73;46.36;100665.34;1758385;81;21506;-76
2022/10/15 08:41:49;;;;;;;5.00;2.70;;;;;;;14.04;46.23;100662.01;1755653;80;21037;-76
2022/10/15 08:44:29;;;;;;;3.62;2.85;;;;;;;14.36;45.36;100663.78;1789596;80;21009;-77
2022/10/15 08:47:19;;;;;;;4.05;3.05;;;;;;;14.62;45.07;100663.24;1782581;80;21004;-76
2022/10/15 08:49:53;;;;;;;5.60;3.22;;;;;;;14.86;44.98;100666.34;1757975;81;20981;-77
2022/10/15 08:52:44;;;;;;;5.10;3.20;;;;;;;15.14;44.56;100659.53;1758521;80;21722;-75
2022/10/15 08:55:12;;;;;;;5.90;3.30;;;;;;;15.46;43.81;100666.20;1757928;81;21500;-77
2022/10/15 08:57:52;;;;;;;5.22;2.70;;;;;;;15.80;43.66;100659.12;1759330;80;21036;-76
2022/10/15 09:00:25;;;;;;;6.50;3.50;;;;;;;16.20;43.25;100657.59;1747361;82;21069;-77
2022/10/15 09:03:11;;;;;;;6.08;3.08;;;;;;;16.76;42.87;100654.47;1757767;81;21060;-77
2022/10/15 09:06:09;;;;;;;4.20;3.50;;;;;;;17.36;42.17;100652.00;1742226;82;21123;-76
2022/10/15 09:09:04;;;;;;;5.95;3.65;;;;;;;18.07;41.20;100651.23;1774111;80;21141;-77
2022/10/15 09:11:59;;;;;;;4.78;3.40;;;;;;;18.80;39.94;100653.59;1758712;81;21028;-77
2022/10/15 09:14:34;;;;;;;5.72;3.67;;;;;;;19.63;39.02;100643.47;1758388;81;21012;-78
2022/10/15 09:17:14;;;;;;;;;;;;;;;20.48;37.66;100640.13;1763014;80;21088;-76
2022/10/15 09:19:42;;;;;;;3.58;2.98;;;;;;;21.19;35.90;100639.25;1804154;79;20220;-77
2022/10/15 09:22:14;;;;;;;7.40;3.12;;;;;;;21.64;35.61;100647.02;1787225;79;21093;-76
2022/10/15 09:24:43;;;;;;;6.85;3.22;;;;;;;22.09;35.31;100638.73;1763058;80;21072;-77
2022/10/15 09:27:23;;;;;;;5.10;3.00;;;;;;;22.67;34.37;100633.47;1765872;80;21112;-76
2022/10/15 09:30:24;;;;;;;5.45;3.47;;;;;;;23.19;34.25;100642.01;1775186;80;21113;-76
2022/10/15 09:33:14;;;;;;;4.95;3.15;;;;;;;23.86;33.66;100646.47;1775162;80;21615;-77
2022/10/15 09:38:28;;;;;;;3.45;2.87;;;;;;;25.16;31.84;100629.45;1887077;76;22484;-80
2022/10/15 09:41:15;;;;;;;5.28;3.02;;;;;;;25.26;31.27;100625.58;1857288;77;21047;-79
2022/10/15 09:43:45;;;;;;;3.58;3.25;;;;;;;25.63;31.10;100643.36;1856125;77;21705;-80
2022/10/15 09:46:11;;;;;;;6.97;3.12;;;;;;;26.17;30.27;100631.45;1852903;77;20949;-79
2022/10/15 09:48:43;;;;;;;5.50;3.45;;;;;;;26.51;29.98;100636.83;1855408;77;21021;-79
2022/10/15 09:51:35;;;;;;;4.12;2.83;;;;;;;26.74;29.48;100631.70;1857329;77;21529;-79
2022/10/15 09:54:32;;;;;;;5.12;3.00;;;;;;;26.88;28.96;100630.77;1857700;77;21550;-79
2022/10/15 09:56:58;;;;;;;4.95;3.17;;;;;;;26.94;29.32;100629.75;1858310;77;22005;-79
2022/10/15 09:59:25;;;;;;;5.20;3.22;;;;;;;27.12;28.77;100625.02;1860562;77;20963;-79
2022/10/15 10:02:06;;;;;;;5.00;3.50;;;;;;;27.05;29.05;100626.06;1859005;77;21550;-79
2022/10/15 10:04:33;;;;;;;6.05;3.30;;;;;;;27.24;29.07;100640.72;1855684;77;21098;-80
2022/10/15 10:07:06;;;;;;;4.60;3.25;;;;;;;27.64;28.65;100628.55;1857534;77;21012;-78
2022/10/15 10:09:38;;;;;;;4.97;3.10;;;;;;;27.94;27.67;100633.46;1857712;77;21029;-80
2022/10/15 10:12:07;;;;;;;7.40;4.28;;;;;;;28.07;27.76;100630.83;1854706;77;21848;-80
2022/10/15 10:14:40;;;;;;;6.53;4.25;;;;;;;28.21;27.68;100628.45;1857760;77;21013;-80
2022/10/15 10:17:21;;;;;;;4.33;3.12;;;;;;;28.32;27.71;100627.43;1857519;77;21028;-79
2022/10/15 10:20:18;;;;;;;5.00;3.08;;;;;;;28.74;27.39;100632.03;1858007;77;21025;-79
2022/10/15 10:22:55;;;;;;;9.30;3.52;;;;;;;29.02;26.96;100628.55;1851179;77;21166;-77
2022/10/15 10:25:33;;;;;;;8.58;4.35;;;;;;;29.17;27.04;100630.54;1858019;77;21500;-77
2022/10/15 10:28:11;;;;;;;7.87;4.25;;;;;;;29.49;26.93;100630.28;1835106;77;20955;-77
2022/10/15 10:30:53;;;;;;;5.17;3.72;;;;;;;29.93;26.66;100628.95;1857579;77;20986;-76
2022/10/15 10:33:36;;;;;;;6.53;3.75;;;;;;;30.34;26.16;100622.03;1855870;77;20992;-77
2022/10/15 10:36:05;;;;;;;6.00;3.98;;;;;;;30.51;25.95;100615.66;1813587;78;21052;-78
2022/10/15 10:38:36;;;;;;;4.50;4.05;;;;;;;30.74;25.62;100611.45;1818742;78;21060;-77
2022/10/15 10:41:07;;;;;;;4.55;3.95;;;;;;;30.53;25.66;100614.02;1818894;78;21059;-77
2022/10/15 10:43:38;;;;;;;6.15;3.90;;;;;;;30.45;25.71;100618.72;1783340;79;21512;-77
2022/10/15 10:46:17;;;;;;;5.20;4.40;;;;;;;30.38;25.52;100608.88;1806371;79;21073;-78
2022/10/15 10:48:48;;;;;;;4.95;4.12;;;;;;;30.21;25.76;100612.98;1780479;80;21125;-76
2022/10/15 10:51:23;;;;;;;6.47;3.92;;;;;;;29.97;25.65;100614.97;1797097;79;21054;-77
2022/10/15 10:54:02;;;;;;;7.45;3.83;;;;;;;29.82;25.81;100613.62;1839821;77;21032;-78
2022/10/15 10:56:37;;;;;;;7.20;4.35;;;;;;;30.02;25.67;100612.23;1845517;77;21095;-78
2022/10/15 10:59:17;;;;;;;4.33;3.45;;;;;;;30.36;25.55;100611.61;1851440;77;21041;-77
2022/10/15 11:01:46;;;;;;;3.87;2.90;;;;;;;30.78;25.21;100602.11;1851528;77;21009;-76
2022/10/15 11:04:25;;;;;;;3.10;2.50;;;;;;;30.53;24.95;100600.31;1776116;80;21080;-77
2022/10/15 11:07:10;;;;;;;3.72;3.05;;;;;;;30.31;24.95;100606.13;1779999;80;21021;-76
2022/10/15 11:09:48;;;;;;;6.17;2.90;;;;;;;30.27;25.11;100599.54;1747760;82;21042;-79
2022/10/15 11:12:50;;;;;;;3.85;2.62;;;;;;;30.30;25.13;100597.63;1818073;79;21119;-76
2022/10/15 11:15:44;;;;;;;7.30;3.42;;;;;;;30.64;24.88;100596.98;1818198;79;21609;-77
2022/10/15 11:18:40;;;;;;;4.13;3.03;;;;;;;30.74;24.55;100600.48;1836940;77;21567;-77
2022/10/15 11:21:57;;;;;;;3.90;3.02;;;;;;;30.73;24.47;100593.90;1832484;77;21256;-76
2022/10/15 11:24:44;;;;;;;5.47;3.58;;;;;;;30.82;24.67;100594.95;1818401;78;20990;-77
2022/10/15 11:27:39;;;;;;;6.37;3.20;;;;;;;30.70;24.56;100599.41;1826244;77;21067;-77
2022/10/15 11:30:37;;;;;;;7.62;3.52;;;;;;;30.60;24.71;100593.98;1852035;77;21087;-76
2022/10/15 11:33:37;;;;;;;8.98;3.80;;;;;;;30.53;24.84;100592.08;1849061;77;21013;-77
2022/10/15 11:36:56;;;;;;;3.20;2.87;;;;;;;30.67;25.01;100597.21;1848571;77;21053;-77
2022/10/15 11:39:38;;;;;;;6.17;3.85;;;;;;;30.85;24.49;100597.67;1851133;77;21161;-76
2022/10/15 11:42:24;;;;;;;5.83;3.45;;;;;;;30.82;24.50;100594.14;1851344;77;21024;-77
2022/10/15 11:45:30;;;;;;;3.42;2.92;;;;;;;30.85;24.49;100594.40;1847175;77;21886;-77
2022/10/15 11:48:01;;;;;;;4.40;3.15;;;;;;;30.74;24.49;100590.88;1822876;77;21021;-77
2022/10/15 11:50:49;;;;;;;4.58;3.10;;;;;;;30.89;24.54;100594.13;1811695;79;21060;-78
2022/10/15 11:53:50;;;;;;;5.58;3.55;;;;;;;30.88;24.43;100587.52;1838923;77;21055;-77
2022/10/15 11:56:33;;;;;;;6.03;3.05;;;;;;;30.90;24.36;100587.52;1851605;77;21540;-78
2022/10/15 11:59:32;;;;;;;4.03;3.12;;;;;;;30.84;24.38;100585.89;1765509;80;21541;-77